Time;durP1;ratioP1;P1;durP2;ratioP2;P2;SDS_P1;SDS_P2;PMS_P1;PMS_P2;Temp;Humidity;BMP_temperature;BMP_pressure;BME280_temperature;BME280_humidity;BME280_pressure;Samples;Min_cycle;Max_cycle;Signal;HPM_P1;HPM_P2
2022/09/16 00:01:15;;;;;;;7.20;0.65;;;9.90;99.90;;;;;;5045388;28;20613;-42
2022/09/16 00:03:41;;;;;;;6.13;1.08;;;9.90;99.90;;;;;;5045678;28;20394;-42
2022/09/16 00:06:17;;;;;;;4.63;0.70;;;9.90;99.90;;;;;;5045429;28;20037;-41
2022/09/16 00:08:44;;;;;;;5.40;0.40;;;9.90;99.90;;;;;;5045547;28;20458;-43
2022/09/16 00:11:10;;;;;;;5.15;0.52;;;10.00;99.90;;;;;;5045243;28;20587;-44
2022/09/16 00:13:36;;;;;;;8.95;0.50;;;9.80;99.90;;;;;;5045770;28;20120;-42
2022/09/16 00:16:07;;;;;;;6.38;0.70;;;9.90;99.90;;;;;;5045499;28;20117;-42
2022/09/16 00:18:33;;;;;;;5.97;0.90;;;9.80;99.90;;;;;;5045748;28;20036;-44
2022/09/16 00:20:58;;;;;;;4.03;0.60;;;10.50;99.90;;;;;;5027665;28;20090;-42
2022/09/16 00:23:24;;;;;;;5.95;1.15;;;9.60;99.90;;;;;;5045160;28;20053;-43
2022/09/16 00:25:54;;;;;;;7.65;0.80;;;10.20;99.90;;;;;;5045640;28;20273;-42
2022/09/16 00:28:21;;;;;;;5.32;0.90;;;9.40;99.90;;;;;;5045691;28;20075;-41
2022/09/16 00:30:48;;;;;;;7.57;0.70;;;9.50;99.90;;;;;;5049211;28;20041;-42
2022/09/16 00:33:14;;;;;;;6.35;0.77;;;9.20;99.90;;;;;;5049808;28;20052;-43
2022/09/16 00:35:40;;;;;;;6.93;0.57;;;9.30;99.90;;;;;;5049704;28;20049;-42
2022/09/16 00:38:06;;;;;;;4.97;0.55;;;9.70;99.90;;;;;;5049473;28;20383;-42
2022/09/16 00:40:32;;;;;;;5.65;0.90;;;8.70;99.90;;;;;;5050025;28;20102;-43
2022/09/16 00:42:59;;;;;;;6.05;0.80;;;9.40;99.90;;;;;;5049366;28;20060;-42
2022/09/16 00:45:30;;;;;;;6.60;0.60;;;9.30;99.90;;;;;;5049232;28;20048;-43
2022/09/16 00:48:04;;;;;;;6.45;0.68;;;9.40;99.90;;;;;;5049900;28;20047;-41
2022/09/16 00:50:59;;;;;;;6.03;1.02;;;9.50;99.90;;;;;;5030857;28;20076;-43
2022/09/16 00:53:32;;;;;;;6.03;0.60;;;10.00;99.90;;;;;;5030144;28;20143;-42
2022/09/16 00:56:02;;;;;;;5.55;0.63;;;9.60;99.90;;;;;;5049005;28;20045;-42
2022/09/16 00:58:36;;;;;;;6.00;0.90;;;9.70;99.90;;;;;;5049250;28;20045;-42
2022/09/16 01:01:04;;;;;;;3.75;0.70;;;9.80;99.90;;;;;;5049304;28;20107;-42
2022/09/16 01:03:37;;;;;;;5.88;0.40;;;9.80;99.90;;;;;;5049151;28;20049;-42
2022/09/16 01:06:03;;;;;;;6.78;0.55;;;9.80;99.90;;;;;;5048682;28;20041;-42
2022/09/16 01:08:29;;;;;;;6.30;0.50;;;9.90;99.90;;;;;;5048484;28;20384;-42
2022/09/16 01:10:55;;;;;;;5.25;0.50;;;10.60;99.90;;;;;;5049298;28;20101;-43
2022/09/16 01:13:21;;;;;;;5.82;0.65;;;10.20;99.90;;;;;;5049066;28;20053;-43
2022/09/16 01:16:13;;;;;;;8.50;0.98;;;9.80;99.90;;;;;;5048572;28;20901;-43
2022/09/16 01:18:42;;;;;;;6.13;0.70;;;9.90;99.90;;;;;;5048868;28;20044;-42
2022/09/16 01:21:19;;;;;;;8.38;0.50;;;10.50;99.90;;;;;;5048422;28;20487;-42
2022/09/16 01:24:13;;;;;;;7.78;1.05;;;9.90;99.90;;;;;;5048623;28;20049;-42
2022/09/16 01:27:05;;;;;;;4.75;0.50;;;10.00;99.90;;;;;;5048698;28;20079;-42
2022/09/16 01:30:08;;;;;;;7.15;0.88;;;10.20;99.90;;;;;;5048488;28;20073;-42
2022/09/16 01:32:50;;;;;;;11.35;0.73;;;10.00;99.90;;;;;;5047999;28;20049;-43
2022/09/16 01:35:16;;;;;;;3.50;0.30;;;10.00;99.90;;;;;;5048410;28;20442;-42
2022/09/16 01:38:00;;;;;;;2.75;0.75;;;9.90;99.90;;;;;;5048558;28;20049;-42
2022/09/16 01:40:37;;;;;;;3.63;0.65;;;9.90;99.90;;;;;;5047845;28;20051;-42
2022/09/16 01:43:08;;;;;;;5.72;0.43;;;10.00;99.90;;;;;;5048833;28;20476;-44
2022/09/16 01:45:47;;;;;;;6.47;0.50;;;10.30;99.90;;;;;;5048817;28;20041;-42
2022/09/16 01:48:26;;;;;;;5.85;0.30;;;10.00;99.90;;;;;;5048723;28;20056;-42
2022/09/16 01:51:07;;;;;;;6.30;0.75;;;10.00;99.90;;;;;;5048343;28;20053;-47
2022/09/16 01:53:42;;;;;;;5.80;0.55;;;10.00;99.90;;;;;;5030108;28;20166;-45
2022/09/16 01:56:14;;;;;;;3.80;0.70;;;10.00;99.90;;;;;;5048240;28;20044;-42
2022/09/16 01:59:07;;;;;;;12.63;1.00;;;10.10;99.90;;;;;;5048222;28;20044;-43
2022/09/16 02:01:36;;;;;;;3.53;0.50;;;10.00;99.90;;;;;;5047625;28;20049;-42
2022/09/16 02:04:12;;;;;;;6.30;0.75;;;10.20;99.90;;;;;;5047947;28;20148;-43
2022/09/16 02:06:39;;;;;;;7.15;0.88;;;10.50;99.90;;;;;;5048073;28;20052;-41
2022/09/16 02:09:10;;;;;;;4.63;0.63;;;10.30;99.90;;;;;;5047689;28;20057;-43
2022/09/16 02:11:37;;;;;;;9.68;1.13;;;10.10;99.90;;;;;;5047385;28;20048;-41
2022/09/16 02:14:08;;;;;;;4.90;0.60;;;9.80;99.90;;;;;;5048054;28;20045;-42
2022/09/16 02:16:39;;;;;;;6.80;1.13;;;9.80;99.90;;;;;;5047671;28;20041;-41
2022/09/16 02:19:14;;;;;;;5.22;0.82;;;9.70;99.90;;;;;;5047914;28;20080;-42
2022/09/16 02:21:41;;;;;;;11.90;0.88;;;9.60;99.90;;;;;;5048041;28;20178;-42
2022/09/16 02:24:15;;;;;;;4.35;0.80;;;9.70;99.90;;;;;;5047915;28;20037;-43
2022/09/16 02:26:48;;;;;;;5.90;0.63;;;9.40;99.90;;;;;;5047910;28;20044;-42
2022/09/16 02:29:22;;;;;;;4.60;0.50;;;9.60;99.90;;;;;;5048206;28;20049;-43
2022/09/16 02:31:50;;;;;;;8.98;0.60;;;9.30;99.90;;;;;;5048153;28;20045;-44
2022/09/16 02:34:24;;;;;;;4.95;0.73;;;9.30;99.90;;;;;;5047624;28;20384;-41
2022/09/16 02:36:55;;;;;;;9.43;0.90;;;9.20;99.90;;;;;;5047598;28;20037;-45
2022/09/16 02:39:28;;;;;;;7.43;0.85;;;9.30;99.90;;;;;;5047118;28;20094;-42
2022/09/16 02:41:55;;;;;;;4.55;0.82;;;9.20;99.90;;;;;;5046949;28;20048;-44
2022/09/16 02:44:22;;;;;;;7.63;1.08;;;9.80;99.90;;;;;;5047084;28;20077;-42
2022/09/16 02:47:04;;;;;;;7.60;0.80;;;9.50;99.90;;;;;;5047046;28;20086;-44
2022/09/16 02:49:41;;;;;;;6.63;1.05;;;9.30;99.90;;;;;;5046661;28;20048;-42
2022/09/16 02:52:19;;;;;;;6.82;1.08;;;9.60;99.90;;;;;;5045703;28;20055;-43
2022/09/16 02:54:51;;;;;;;7.80;0.95;;;9.40;99.90;;;;;;5046573;28;20164;-45
2022/09/16 02:57:17;;;;;;;5.00;1.08;;;9.50;99.90;;;;;;5046881;28;20041;-46
2022/09/16 02:59:43;;;;;;;3.60;0.70;;;10.50;99.90;;;;;;5046245;28;20557;-42
2022/09/16 03:02:09;;;;;;;7.82;1.42;;;9.50;99.90;;;;;;5046241;28;20053;-44
2022/09/16 03:04:35;;;;;;;8.38;1.23;;;9.50;99.90;;;;;;5046304;28;20056;-42
2022/09/16 03:07:04;;;;;;;6.43;0.82;;;9.60;99.90;;;;;;5046193;28;20037;-42
2022/09/16 03:09:31;;;;;;;9.85;1.10;;;9.60;99.90;;;;;;5046013;28;20065;-43
2022/09/16 03:12:06;;;;;;;7.07;1.30;;;9.70;99.90;;;;;;5046642;28;20074;-47
2022/09/16 03:14:59;;;;;;;10.52;1.13;;;9.70;99.90;;;;;;5046346;28;20127;-42
2022/09/16 03:17:42;;;;;;;6.60;1.15;;;9.80;99.90;;;;;;5046798;28;20084;-42
2022/09/16 03:20:17;;;;;;;6.55;0.80;;;10.10;99.90;;;;;;5046662;28;20116;-42
2022/09/16 03:23:12;;;;;;;8.82;1.08;;;9.90;99.90;;;;;;5046370;28;20045;-43
2022/09/16 03:26:03;;;;;;;13.93;2.35;;;9.90;99.90;;;;;;5046311;28;20044;-42
2022/09/16 03:28:47;;;;;;;9.48;1.08;;;9.50;99.90;;;;;;5046118;28;20072;-42
2022/09/16 03:31:38;;;;;;;11.50;1.83;;;10.30;99.90;;;;;;5046598;28;20049;-44
2022/09/16 03:34:21;;;;;;;10.52;1.10;;;9.90;99.90;;;;;;5037557;28;20590;-42
2022/09/16 03:36:52;;;;;;;6.13;0.88;;;9.80;99.90;;;;;;5045870;28;20501;-42
2022/09/16 03:39:21;;;;;;;11.93;1.27;;;10.00;99.90;;;;;;5046053;28;20430;-42
2022/09/16 03:41:47;;;;;;;4.10;0.70;;;9.80;99.90;;;;;;5027935;28;20045;-43
2022/09/16 03:44:13;;;;;;;5.82;0.60;;;10.00;99.90;;;;;;5046280;28;20071;-43
2022/09/16 03:46:39;;;;;;;7.45;1.02;;;10.10;99.90;;;;;;5045840;28;20503;-41
2022/09/16 03:49:04;;;;;;;10.93;1.45;;;9.60;99.90;;;;;;5046118;28;20399;-42
2022/09/16 03:51:30;;;;;;;5.03;0.80;;;10.00;99.90;;;;;;5045899;28;20045;-42
2022/09/16 03:53:55;;;;;;;6.20;0.77;;;9.40;99.90;;;;;;5046194;28;20780;-42
2022/09/16 03:56:23;;;;;;;7.97;0.90;;;10.10;99.90;;;;;;5045527;28;20793;-44
2022/09/16 03:58:49;;;;;;;9.60;2.05;;;9.10;99.90;;;;;;5045470;28;20033;-42
2022/09/16 04:01:14;;;;;;;7.22;0.63;;;9.00;99.90;;;;;;5046073;28;20048;-42
2022/09/16 04:03:41;;;;;;;4.43;1.13;;;9.60;99.90;;;;;;5045546;28;20041;-43
2022/09/16 04:06:08;;;;;;;5.70;0.52;;;8.80;99.90;;;;;;5045649;28;20052;-41
2022/09/16 04:08:34;;;;;;;9.43;0.73;;;9.50;99.90;;;;;;5023633;28;20053;-42
2022/09/16 04:11:06;;;;;;;9.32;0.95;;;9.50;99.90;;;;;;5025281;28;20041;-43
2022/09/16 04:13:34;;;;;;;8.45;0.68;;;8.70;99.90;;;;;;5025426;28;20142;-44
2022/09/16 04:16:00;;;;;;;6.88;0.70;;;9.20;99.90;;;;;;5024717;28;20467;-45
2022/09/16 04:18:26;;;;;;;6.07;0.38;;;8.70;99.90;;;;;;5025502;28;20041;-42
2022/09/16 04:20:57;;;;;;;4.78;0.50;;;9.30;99.90;;;;;;5025377;28;20037;-42
2022/09/16 04:23:27;;;;;;;6.65;0.98;;;9.40;99.90;;;;;;5025447;28;20077;-42
2022/09/16 04:25:55;;;;;;;12.75;0.82;;;9.30;99.90;;;;;;5025616;28;20495;-42
2022/09/16 04:28:21;;;;;;;6.35;0.40;;;10.40;99.90;;;;;;5025720;28;20487;-42
2022/09/16 04:30:46;;;;;;;9.77;0.77;;;9.70;99.90;;;;;;5025894;28;20049;-42
2022/09/16 04:33:12;;;;;;;9.20;1.08;;;9.50;99.90;;;;;;5025990;28;20053;-42
2022/09/16 04:35:38;;;;;;;12.43;2.65;;;9.20;99.90;;;;;;5026078;28;20150;-42
2022/09/16 04:38:04;;;;;;;6.85;0.75;;;9.50;99.90;;;;;;5025784;28;20099;-42
2022/09/16 04:40:29;;;;;;;7.50;1.05;;;9.30;99.90;;;;;;5026195;28;20045;-42
2022/09/16 04:42:55;;;;;;;5.72;0.60;;;9.00;99.90;;;;;;5025672;28;20063;-42
2022/09/16 04:45:21;;;;;;;9.13;1.00;;;8.80;99.90;;;;;;5026078;28;20567;-42
2022/09/16 04:47:46;;;;;;;6.68;0.60;;;9.00;99.90;;;;;;5025973;28;20045;-44
2022/09/16 04:50:12;;;;;;;6.13;0.75;;;8.90;99.90;;;;;;5025915;28;20041;-42
2022/09/16 04:52:38;;;;;;;10.18;0.80;;;9.70;99.90;;;;;;5025737;28;20049;-42
2022/09/16 04:55:04;;;;;;;4.30;0.77;;;8.90;99.90;;;;;;5025688;28;20081;-41
2022/09/16 04:57:31;;;;;;;4.63;0.70;;;8.60;99.90;;;;;;5025941;28;20084;-42
2022/09/16 04:59:57;;;;;;;7.70;0.85;;;8.90;99.90;;;;;;5025584;28;20049;-42
2022/09/16 05:02:23;;;;;;;3.50;0.50;;;8.90;99.90;;;;;;5025508;28;20148;-41
2022/09/16 05:04:48;;;;;;;8.40;0.85;;;8.40;99.90;;;;;;5025285;28;20125;-42
2022/09/16 05:07:14;;;;;;;7.03;0.75;;;8.50;99.90;;;;;;5025222;28;20045;-42
2022/09/16 05:09:40;;;;;;;6.55;0.77;;;8.80;99.90;;;;;;5042501;28;20110;-42
2022/09/16 05:12:06;;;;;;;6.60;0.63;;;8.90;99.90;;;;;;5045013;28;20052;-43
2022/09/16 05:14:32;;;;;;;6.20;0.60;;;8.30;99.90;;;;;;5044980;28;20045;-43
2022/09/16 05:16:57;;;;;;;5.38;0.57;;;9.10;99.90;;;;;;5047742;28;20533;-42
2022/09/16 05:19:23;;;;;;;8.35;0.90;;;8.70;99.90;;;;;;5048260;28;20068;-41
2022/09/16 05:21:48;;;;;;;6.05;1.00;;;8.70;99.90;;;;;;5048141;28;20098;-43
2022/09/16 05:24:14;;;;;;;9.95;1.15;;;8.70;99.90;;;;;;5048369;28;20041;-42
2022/09/16 05:26:41;;;;;;;7.15;1.20;;;9.20;99.90;;;;;;5048257;28;20106;-43
2022/09/16 05:29:14;;;;;;;10.55;1.10;;;8.80;99.90;;;;;;5048460;28;20068;-43
2022/09/16 05:31:41;;;;;;;6.80;0.70;;;8.90;99.90;;;;;;5048231;28;20044;-42
2022/09/16 05:34:12;;;;;;;6.18;0.85;;;9.10;99.90;;;;;;5047786;28;20041;-41
2022/09/16 05:36:38;;;;;;;11.15;0.77;;;8.80;99.90;;;;;;5048236;28;20080;-41
2022/09/16 05:39:05;;;;;;;10.63;1.27;;;9.10;99.90;;;;;;5048304;28;20033;-41
2022/09/16 05:41:31;;;;;;;8.02;0.88;;;9.10;99.90;;;;;;5048628;28;20045;-43
2022/09/16 05:44:00;;;;;;;7.95;0.70;;;9.90;99.90;;;;;;5047869;28;20041;-41
2022/09/16 05:46:27;;;;;;;5.20;1.00;;;9.30;99.90;;;;;;5047938;28;20047;-42
2022/09/16 05:48:53;;;;;;;9.35;1.02;;;9.30;99.90;;;;;;5047879;28;20067;-42
2022/09/16 05:51:20;;;;;;;8.70;1.25;;;10.00;99.90;;;;;;5047869;28;20045;-42
2022/09/16 05:53:48;;;;;;;11.68;0.80;;;9.40;99.90;;;;;;5047963;28;20056;-42
2022/09/16 05:56:24;;;;;;;11.25;0.80;;;9.50;99.90;;;;;;5047956;28;20509;-43
2022/09/16 05:58:52;;;;;;;18.98;1.33;;;9.10;99.90;;;;;;5048239;28;20045;-42
2022/09/16 06:01:20;;;;;;;13.77;2.05;;;9.40;99.90;;;;;;5047840;28;20053;-42
2022/09/16 06:03:48;;;;;;;6.38;0.52;;;9.30;99.90;;;;;;5047855;28;20449;-43
2022/09/16 06:06:25;;;;;;;10.95;1.60;;;9.70;99.90;;;;;;5048003;28;20609;-43
2022/09/16 06:08:53;;;;;;;10.52;0.93;;;9.80;99.90;;;;;;5047648;28;20053;-46
2022/09/16 06:11:20;;;;;;;10.63;0.90;;;9.40;99.90;;;;;;5047866;28;20045;-43
2022/09/16 06:13:46;;;;;;;9.73;1.73;;;9.50;99.90;;;;;;5047043;28;20399;-41
2022/09/16 06:16:13;;;;;;;11.82;1.08;;;10.10;99.90;;;;;;5029770;28;20041;-43
2022/09/16 06:18:39;;;;;;;8.82;0.90;;;9.90;99.90;;;;;;5047329;28;20090;-45
2022/09/16 06:21:10;;;;;;;15.32;1.00;;;10.30;99.90;;;;;;5029187;28;20049;-42
2022/09/16 06:23:37;;;;;;;6.67;0.80;;;9.70;99.90;;;;;;5045396;28;20381;-44
2022/09/16 06:26:24;;;;;;;6.78;0.68;;;10.20;99.90;;;;;;5046282;28;20043;-43
2022/09/16 06:28:50;;;;;;;6.40;0.80;;;10.70;99.90;;;;;;5044254;28;20486;-44
2022/09/16 06:31:24;;;;;;;4.72;0.43;;;9.80;99.90;;;;;;5046265;28;20490;-43
2022/09/16 06:33:51;;;;;;;5.60;0.50;;;9.80;99.90;;;;;;5046217;28;20033;-43
2022/09/16 06:36:23;;;;;;;9.25;1.15;;;10.00;99.90;;;;;;5046683;28;20052;-42
2022/09/16 06:38:50;;;;;;;9.20;1.88;;;10.00;99.90;;;;;;5043718;28;20114;-44
2022/09/16 06:41:17;;;;;;;9.10;0.45;;;10.30;99.90;;;;;;5046439;28;20049;-42
2022/09/16 06:43:44;;;;;;;3.72;0.47;;;10.60;99.90;;;;;;5046393;28;20049;-43
2022/09/16 06:46:12;;;;;;;11.07;0.77;;;10.40;99.90;;;;;;5047014;28;20479;-42
2022/09/16 06:48:39;;;;;;;11.98;0.77;;;10.30;99.90;;;;;;5046838;28;20057;-42
2022/09/16 06:51:11;;;;;;;7.40;0.88;;;10.10;99.90;;;;;;5046342;28;20134;-41
2022/09/16 06:53:37;;;;;;;12.98;0.88;;;10.90;99.90;;;;;;5046612;28;20506;-44
2022/09/16 06:56:07;;;;;;;11.55;0.88;;;10.40;99.90;;;;;;5046163;28;20502;-44
2022/09/16 06:58:34;;;;;;;9.25;0.80;;;10.60;99.90;;;;;;5046657;28;20043;-43
2022/09/16 07:01:11;;;;;;;12.43;1.23;;;10.70;99.90;;;;;;5046321;28;20048;-43
2022/09/16 07:03:42;;;;;;;12.45;1.00;;;10.90;99.90;;;;;;5046318;28;20048;-44
2022/09/16 07:06:10;;;;;;;5.97;0.60;;;10.80;99.90;;;;;;5046639;28;20118;-43
2022/09/16 07:08:37;;;;;;;9.82;0.55;;;11.50;99.90;;;;;;5046216;28;20061;-42
2022/09/16 07:11:32;;;;;;;8.23;0.77;;;10.80;99.90;;;;;;5046298;28;20043;-44
2022/09/16 07:13:59;;;;;;;11.25;0.70;;;11.90;99.90;;;;;;5035150;28;20122;-42
2022/09/16 07:16:25;;;;;;;9.55;1.77;;;11.30;99.90;;;;;;5045581;28;20554;-42
2022/09/16 07:18:55;;;;;;;14.23;1.00;;;11.10;99.90;;;;;;5045612;28;20049;-43
2022/09/16 07:21:24;;;;;;;6.93;0.77;;;11.20;99.90;;;;;;5041253;28;20041;-44
2022/09/16 07:23:53;;;;;;;13.02;1.08;;;11.60;99.90;;;;;;5043283;28;20045;-42
2022/09/16 07:26:25;;;;;;;10.50;1.00;;;11.80;99.90;;;;;;5044430;28;20788;-42
2022/09/16 07:28:52;;;;;;;8.90;0.75;;;11.70;99.90;;;;;;5045117;28;20033;-43
2022/09/16 07:31:23;;;;;;;6.57;0.70;;;12.00;99.90;;;;;;5045089;28;20044;-43
2022/09/16 07:33:50;;;;;;;8.20;0.60;;;11.50;99.90;;;;;;5045323;28;20185;-42
2022/09/16 07:36:20;;;;;;;7.95;1.02;;;12.20;99.90;;;;;;5045320;28;20056;-46
2022/09/16 07:38:46;;;;;;;10.98;1.10;;;11.90;99.90;;;;;;5044957;28;20478;-46
2022/09/16 07:41:18;;;;;;;10.80;1.10;;;12.20;99.90;;;;;;5042454;28;20390;-43
2022/09/16 07:43:44;;;;;;;9.07;1.00;;;12.40;99.90;;;;;;5045221;28;20178;-43
2022/09/16 07:46:11;;;;;;;8.55;0.70;;;12.60;99.90;;;;;;5045178;28;20084;-46
2022/09/16 07:48:37;;;;;;;11.05;1.35;;;12.70;99.90;;;;;;5045080;28;20491;-43
2022/09/16 07:51:07;;;;;;;11.07;0.80;;;12.80;99.90;;;;;;5045343;28;20060;-44
2022/09/16 07:53:33;;;;;;;7.10;1.33;;;12.80;99.90;;;;;;5042853;28;20037;-44
2022/09/16 07:56:03;;;;;;;10.48;1.17;;;12.90;99.90;;;;;;5045432;28;20063;-43
2022/09/16 07:58:30;;;;;;;8.70;1.17;;;12.70;99.90;;;;;;5045073;28;20446;-43
2022/09/16 08:00:56;;;;;;;7.25;0.68;;;12.70;99.90;;;;;;5027172;28;20048;-43
2022/09/16 08:03:22;;;;;;;11.18;0.90;;;12.80;99.90;;;;;;5045079;28;20111;-44
2022/09/16 08:05:47;;;;;;;15.52;1.10;;;13.00;99.90;;;;;;5045410;28;20040;-43
2022/09/16 08:08:13;;;;;;;12.32;1.13;;;12.90;99.90;;;;;;5044592;28;20121;-42
2022/09/16 08:10:39;;;;;;;11.73;1.15;;;12.90;99.90;;;;;;5044651;28;20079;-42
2022/09/16 08:13:06;;;;;;;10.73;0.77;;;13.20;99.90;;;;;;5022805;28;20044;-42
2022/09/16 08:15:32;;;;;;;8.23;0.82;;;13.90;99.90;;;;;;5042834;28;20095;-43
2022/09/16 08:17:58;;;;;;;6.97;0.60;;;13.60;99.90;;;;;;5043474;28;20127;-43
2022/09/16 08:20:25;;;;;;;6.78;1.10;;;14.00;99.90;;;;;;5042937;28;20071;-43
2022/09/16 08:22:50;;;;;;;8.18;0.55;;;14.40;99.90;;;;;;5043763;28;20037;-43
2022/09/16 08:25:16;;;;;;;12.88;1.05;;;14.60;99.90;;;;;;5044417;28;20037;-43
2022/09/16 08:27:42;;;;;;;8.07;0.50;;;15.00;99.90;;;;;;5044398;28;20439;-44
2022/09/16 08:30:08;;;;;;;8.50;1.15;;;;;;;;;;5044633;28;20127;-43
2022/09/16 08:32:34;;;;;;;9.35;1.10;;;15.60;99.90;;;;;;5044239;28;20529;-44
2022/09/16 08:35:00;;;;;;;7.05;0.65;;;15.80;99.90;;;;;;5044002;28;20072;-43
2022/09/16 08:37:26;;;;;;;5.20;0.60;;;16.30;99.90;;;;;;5044032;28;20056;-43
2022/09/16 08:39:52;;;;;;;9.30;0.77;;;16.00;99.90;;;;;;5044140;28;20040;-43
2022/09/16 08:42:35;;;;;;;7.45;0.80;;;16.20;99.90;;;;;;5044057;28;20071;-43
2022/09/16 08:45:19;;;;;;;10.43;1.23;;;16.60;99.90;;;;;;5044936;28;20041;-43
2022/09/16 08:48:01;;;;;;;10.20;0.80;;;16.70;99.90;;;;;;5044941;28;20195;-44
2022/09/16 08:50:32;;;;;;;8.68;0.80;;;17.40;99.90;;;;;;5046091;28;20044;-43
2022/09/16 08:53:00;;;;;;;8.27;0.85;;;18.50;99.90;;;;;;5049021;28;20045;-43
2022/09/16 08:55:31;;;;;;;8.90;0.90;;;19.00;99.90;;;;;;5047834;28;20045;-44
2022/09/16 08:58:06;;;;;;;8.77;0.83;;;18.80;99.90;;;;;;5048603;28;20688;-43
2022/09/16 09:00:33;;;;;;;7.05;0.70;;;18.90;99.90;;;;;;5048577;28;20315;-43
2022/09/16 09:03:16;;;;;;;5.60;0.73;;;20.00;99.90;;;;;;5048400;28;20494;-44
2022/09/16 09:05:59;;;;;;;6.65;0.77;;;21.00;99.90;;;;;;5048948;28;20123;-43
2022/09/16 09:08:39;;;;;;;13.35;1.30;;;21.70;98.70;;;;;;5048466;28;20224;-43
2022/09/16 09:11:11;;;;;;;10.57;0.68;;;21.60;97.10;;;;;;5030545;28;20052;-43
2022/09/16 09:13:44;;;;;;;8.18;0.82;;;21.30;97.20;;;;;;5048840;28;20041;-44
2022/09/16 09:16:43;;;;;;;11.63;1.50;;;20.60;98.20;;;;;;5048062;28;20055;-44
2022/09/16 09:19:34;;;;;;;9.80;1.58;;;20.40;99.40;;;;;;5047897;28;20460;-43
2022/09/16 09:22:24;;;;;;;11.13;0.70;;;20.50;98.90;;;;;;5048156;28;20052;-45
2022/09/16 09:25:18;;;;;;;11.02;1.15;;;20.80;99.10;;;;;;5048047;28;20037;-43
2022/09/16 09:27:50;;;;;;;6.63;0.80;;;21.00;98.70;;;;;;5047950;28;20094;-43
2022/09/16 09:30:19;;;;;;;10.60;0.70;;;21.70;97.80;;;;;;5048123;28;20051;-44
2022/09/16 09:32:59;;;;;;;7.40;0.65;;;22.30;96.10;;;;;;5048591;28;20091;-45
2022/09/16 09:35:48;;;;;;;11.10;1.15;;;22.40;94.10;;;;;;5048075;28;20483;-44
2022/09/16 09:38:39;;;;;;;7.60;1.00;;;22.20;93.80;;;;;;5047795;28;20045;-47
2022/09/16 09:41:21;;;;;;;6.88;1.00;;;21.80;94.10;;;;;;5048005;28;20049;-43
2022/09/16 09:44:05;;;;;;;6.53;0.55;;;21.40;95.20;;;;;;5047811;28;20052;-44
2022/09/16 09:46:37;;;;;;;6.70;0.63;;;21.00;95.00;;;;;;5047460;28;20135;-44
2022/09/16 09:49:28;;;;;;;9.13;0.85;;;20.60;93.70;;;;;;5048048;28;20116;-44
2022/09/16 09:52:02;;;;;;;9.10;0.68;;;20.40;93.80;;;;;;5048359;28;20040;-44
2022/09/16 09:54:33;;;;;;;7.40;0.68;;;20.30;96.70;;;;;;5047707;28;20048;-44
2022/09/16 09:57:24;;;;;;;9.25;1.15;;;19.90;99.60;;;;;;5047551;28;20107;-44
2022/09/16 09:59:49;;;;;;;6.20;0.73;;;19.80;93.50;;;;;;5027132;28;20054;-44
2022/09/16 10:02:22;;;;;;;9.32;1.30;;;19.80;93.60;;;;;;5046654;28;20589;-43
2022/09/16 10:04:48;;;;;;;8.70;1.05;;;19.90;92.40;;;;;;5047412;28;20096;-44
2022/09/16 10:07:19;;;;;;;8.55;0.70;;;20.20;91.90;;;;;;5047768;28;20045;-44
2022/09/16 10:10:13;;;;;;;10.27;0.95;;;20.60;91.70;;;;;;5047567;28;20088;-44
2022/09/16 10:12:39;;;;;;;10.93;0.75;;;21.00;91.80;;;;;;5047474;28;20132;-43
2022/09/16 10:15:06;;;;;;;7.80;0.60;;;20.50;90.90;;;;;;5047948;28;20127;-43
2022/09/16 10:17:32;;;;;;;7.13;0.50;;;20.20;91.70;;;;;;5048233;28;20045;-43
2022/09/16 10:20:06;;;;;;;4.82;0.40;;;19.60;91.90;;;;;;5047461;28;20045;-43
2022/09/16 10:22:33;;;;;;;7.95;0.70;;;19.20;92.40;;;;;;5047693;28;20055;-43
2022/09/16 10:25:01;;;;;;;4.60;0.43;;;19.10;94.80;;;;;;5046970;28;20437;-44
2022/09/16 10:27:34;;;;;;;6.45;0.35;;;19.10;92.60;;;;;;5047751;28;20386;-44
2022/09/16 10:30:15;;;;;;;6.88;0.77;;;19.10;92.70;;;;;;5047194;28;20089;-43
2022/09/16 10:33:04;;;;;;;5.20;0.68;;;19.30;93.00;;;;;;5047176;28;20045;-42
2022/09/16 10:35:35;;;;;;;8.90;0.88;;;19.20;93.00;;;;;;5047108;28;20052;-43
2022/09/16 10:38:12;;;;;;;8.07;1.15;;;19.10;99.50;;;;;;5018655;28;20049;-47
2022/09/16 10:40:49;;;;;;;8.25;0.50;;;19.20;98.30;;;;;;5026341;28;20085;-46
2022/09/16 10:43:15;;;;;;;8.20;0.57;;;18.60;97.00;;;;;;5039073;28;20104;-43
2022/09/16 10:45:47;;;;;;;7.43;0.70;;;18.60;96.50;;;;;;5039863;28;20069;-47
2022/09/16 10:48:21;;;;;;;7.50;0.80;;;18.10;93.50;;;;;;5040891;28;20035;-45
2022/09/16 10:51:29;;;;;;;5.65;0.60;;;18.00;93.30;;;;;;5040104;28;20052;-46
2022/09/16 10:53:58;;;;;;;6.10;0.73;;;17.70;93.90;;;;;;5039954;28;20036;-46
2022/09/16 10:56:30;;;;;;;6.78;0.88;;;17.60;94.80;;;;;;5039633;28;20067;-47
2022/09/16 10:59:10;;;;;;;4.80;0.75;;;17.40;95.40;;;;;;5040964;28;20029;-43
2022/09/16 11:01:57;;;;;;;5.63;0.80;;;17.40;95.80;;;;;;5039519;28;20033;-44
2022/09/16 11:04:44;;;;;;;6.20;0.55;;;17.40;96.10;;;;;;5040326;28;20037;-42
2022/09/16 11:07:35;;;;;;;10.55;2.10;;;17.50;96.40;;;;;;5040531;28;20065;-43
2022/09/16 11:10:22;;;;;;;9.32;0.93;;;17.70;96.40;;;;;;5026382;28;20065;-50
2022/09/16 11:13:15;;;;;;;5.22;0.73;;;17.90;96.70;;;;;;5039731;28;20040;-44
2022/09/16 11:15:44;;;;;;;5.53;0.55;;;18.10;96.20;;;;;;5040224;28;20783;-41
2022/09/16 11:18:09;;;;;;;7.82;0.82;;;18.20;96.00;;;;;;5040485;28;20041;-43
2022/09/16 11:20:53;;;;;;;6.82;0.55;;;18.10;95.40;;;;;;5040064;28;20398;-41
2022/09/16 11:24:04;;;;;;;7.15;0.45;;;18.00;94.00;;;;;;5038529;28;20507;-42
2022/09/16 11:26:54;;;;;;;8.18;0.75;;;17.90;93.80;;;;;;5000665;28;20072;-39
2022/09/16 11:29:50;;;;;;;5.47;0.40;;;18.10;94.10;;;;;;5039603;28;20073;-42
2022/09/16 11:32:34;;;;;;;4.88;0.50;;;18.20;93.60;;;;;;5040884;28;20490;-40
2022/09/16 11:35:21;;;;;;;6.25;0.50;;;18.20;93.70;;;;;;5039012;28;20041;-41
2022/09/16 11:37:52;;;;;;;4.63;0.50;;;18.10;93.80;;;;;;5040727;28;20114;-44
2022/09/16 11:40:23;;;;;;;6.65;0.40;;;18.10;93.60;;;;;;5038801;28;20044;-45
2022/09/16 11:42:58;;;;;;;4.80;0.28;;;18.00;93.10;;;;;;5037653;28;20123;-42
2022/09/16 11:45:45;;;;;;;5.38;0.55;;;17.90;92.60;;;;;;5039960;28;20048;-39
2022/09/16 11:48:37;;;;;;;7.93;0.40;;;18.00;92.80;;;;;;5040249;28;20497;-40
2022/09/16 11:51:20;;;;;;;5.22;0.50;;;18.00;93.30;;;;;;5036200;28;20049;-40
2022/09/16 11:54:07;;;;;;;4.82;0.50;;;17.80;95.30;;;;;;5038148;28;20475;-39
2022/09/16 11:56:51;;;;;;;5.10;0.43;;;17.60;96.20;;;;;;5039430;28;20091;-39
2022/09/16 11:59:32;;;;;;;5.07;0.55;;;17.20;97.20;;;;;;5039607;28;20055;-41
2022/09/16 12:02:15;;;;;;;5.17;0.53;;;16.90;97.30;;;;;;5039620;28;20554;-45
2022/09/16 12:04:52;;;;;;;7.00;0.65;;;16.60;97.70;;;;;;5039069;28;20540;-43
2022/09/16 12:07:28;;;;;;;5.88;0.40;;;16.50;98.40;;;;;;5039240;28;20041;-44
2022/09/16 12:10:02;;;;;;;5.60;0.65;;;16.40;99.10;;;;;;5039203;28;20064;-44
2022/09/16 12:12:48;;;;;;;8.52;0.80;;;16.40;99.50;;;;;;5039298;28;20045;-43
2022/09/16 12:15:17;;;;;;;5.30;0.70;;;16.50;99.90;;;;;;5038156;28;20033;-46
2022/09/16 12:17:52;;;;;;;7.70;0.60;;;16.50;98.90;;;;;;5038423;28;20132;-44
2022/09/16 12:20:23;;;;;;;9.52;0.70;;;16.50;97.70;;;;;;5038427;28;20629;-44
2022/09/16 12:23:08;;;;;;;9.30;0.80;;;16.60;97.30;;;;;;5038814;28;20835;-45
2022/09/16 12:25:45;;;;;;;5.30;0.40;;;16.80;96.80;;;;;;5040275;28;20086;-42
2022/09/16 12:28:23;;;;;;;10.02;0.85;;;17.00;95.80;;;;;;5042812;28;20037;-47
2022/09/16 12:31:01;;;;;;;10.82;1.33;;;17.20;95.40;;;;;;5043958;28;20107;-45
2022/09/16 12:33:32;;;;;;;8.48;0.75;;;17.40;95.00;;;;;;5024247;28;20041;-48
2022/09/16 12:36:06;;;;;;;10.52;1.05;;;17.60;94.90;;;;;;5042206;28;20049;-44
2022/09/16 12:38:32;;;;;;;7.85;0.63;;;17.90;94.60;;;;;;5042181;28;20697;-45
2022/09/16 12:41:35;;;;;;;8.75;1.08;;;18.10;94.10;;;;;;5043359;28;20121;-47
2022/09/16 12:44:27;;;;;;;11.30;0.88;;;18.20;93.10;;;;;;5042887;28;20069;-48
2022/09/16 12:47:14;;;;;;;8.43;0.73;;;18.30;92.90;;;;;;5042990;28;20040;-52
2022/09/16 12:49:47;;;;;;;7.05;0.88;;;18.40;92.70;;;;;;5042167;28;20037;-59
2022/09/16 12:52:15;;;;;;;9.88;1.02;;;18.40;92.30;;;;;;5042426;28;20041;-59
2022/09/16 12:55:07;;;;;;;10.35;0.95;;;18.30;92.20;;;;;;5042459;28;20033;-48
2022/09/16 12:58:02;;;;;;;12.25;0.95;;;18.30;92.00;;;;;;5043084;28;20041;-45
2022/09/16 13:00:59;;;;;;;11.75;1.42;;;18.20;91.90;;;;;;5042004;28;20495;-44
2022/09/16 13:03:30;;;;;;;8.90;0.90;;;18.20;91.50;;;;;;5029646;28;20395;-46
2022/09/16 13:05:58;;;;;;;8.02;1.20;;;18.00;91.50;;;;;;5042048;28;20120;-47
2022/09/16 13:08:30;;;;;;;11.80;1.65;;;18.00;92.00;;;;;;5041915;28;20081;-49
2022/09/16 13:11:06;;;;;;;7.03;1.40;;;18.00;91.90;;;;;;5041492;28;20041;-46
2022/09/16 13:13:39;;;;;;;10.18;1.25;;;17.90;91.80;;;;;;5042318;28;20045;-45
2022/09/16 13:16:07;;;;;;;7.75;1.02;;;17.90;91.80;;;;;;5042723;28;20045;-46
2022/09/16 13:18:48;;;;;;;9.23;1.25;;;16.40;91.50;;;;;;5043052;28;20041;-44